Create Custom Reports and Graphics: Custom Report

Latest Observations

Map

15 Minute Data

Lake County North

13 Stations

15 Minute Data | America/Los_Angeles
as of 7/23/19 5:35 PM PDT
Station Date Time Temp (°F) Dew Pt (°F) RH (%) Wind Spd (mph) Wind Dir (°) Wind Gust (mph) Latest Rain (In) Daily Rain (In) Daily Min Temp (°F) Daily Max Temp (°F)
Upper Lake (UPL) 7/23/19 1700 90.3   1.7 48.3   8.0 24 3.2 WNW | 286 9.0 0.00 0.00 53.7   2.0 93.0   1.2
Scotts Valley (SVL) 7/23/19 1730 88.4   2.6 43.3   12.6 21 2.8 W | 269 12.0 0.00 0.00 48.1   3.4 93.9   0.5
High Valley Ridgeline (Brassfield) 7/23/19 1730 87.9   1.8 41.5   9.2 20 10.5 WSW | 240 15.0 0.00 0.00 67.5   0.9 91.2   0.7
Ridgeline Top (Brassfield) 7/23/19 1730 89.0   2.3 - - - - - - - 66.1   1.0 93.0   0.4
Ridgeline Low (Brassfield) 7/23/19 1730 88.5   1.9 - - - - - - - 66.0   2.3 92.0   0.5
High Valley Winery 7/23/19 1730 90.3   1.2 39.7   10.4 17 9.8 SW | 229 14.2 0.00 0.00 54.4   0.1 94.3   0.5
Kelseyville (KEL) 7/23/19 1730 88.2   2.7 49.8   7.4 27 7.0 WSW | 251 14.5 0.00 0.00 53.6   1.9 92.1   0.2
Kelseyville Remote 7/23/19 1730 91.4   2.9 41.1   11.1 17 - - - - - 53.2   3.0 95.6   0.3
Kelseyville South (SML) 7/23/19 1730 90.9   1.6 41.5   13.7 18 6.8 W | 273 11.1 0.00 0.00 52.1   3.0 93.9   0.5
Bell Hill West (BHR) 7/23/19 1730 89.3   2.0 43.8   9.7 21 7.1 W | 266 13.8 0.00 0.00 55.2   2.1 93.0   0.0
Wight Way 7/23/19 1730 91.7   1.9 48.5   8.9 23 5.0 W | 266 12.2 0.00 0.00 48.8   1.8 97.1   0.2
Red Hills (Beckstoffer) 7/23/19 1730 90.8   1.2 50.2   2.8 25 - - - - - 55.0   4.6 94.2   2.3
Red Hills East (2200ft) 7/23/19 1730 89.0   0.3 52.6   1.6 29 3.8 WSW | 255 8.3 0.00 0.00 58.6   1.4 92.9   0.4
Max     91.7 52.6 29 10.5 - 15.0 0.00 0.00 67.5 97.1
Avg     89.7 45.5 22 6.2 - 12.2 0.00 - - -
Min     87.9 39.7 17 2.8 - 8.3 0.00 0.00 48.1 91.2

Lake County South

8 Stations

15 Minute Data | America/Los_Angeles
as of 7/23/19 5:35 PM PDT
Station Date Time Temp (°F) Dew Pt (°F) RH (%) Wind Spd (mph) Wind Dir (°) Wind Gust (mph) Latest Rain (In) Daily Rain (In) Daily Min Temp (°F) Daily Max Temp (°F)
Bella Vista-Middletown West 7/23/19 1730 88.9   0.7 53.7   1.2 30 - - - - - 52.5   0.6 92.7   1.0
Middletown-South 7/23/19 1730 87.7   0.7 54.7   1.6 31 6.1 SW | 235 15.1 0.00 0.00 53.5   0.7 93.8   1.4
Lower Bohn 7/23/19 1730 94.2   0.2 49.0   6.8 22 6.9 WSW | 248 11.7 0.00 0.00 52.1   0.5 96.8   1.0
Upper Bohn North 7/23/19 1730 94.8   0.2 41.4   11.2 16 4.3 SSW | 211 9.2 0.00 0.00 57.6   0.4 98.8   0.4
Upper Bohn South 7/23/19 1730 95.2   1.7 49.9   6.9 22 3.5 WSW | 251 8.8 0.00 0.00 58.1   1.3 98.9   0.1
Morgan Valley (HSM) 7/23/19 0730 73.0   0.3 42.7   0.4 34 7.7 NW | 311 10.7 0.00 0.00 68.4   3.1 73.5   2.3
Mine Pit North 7/23/19 1730 91.0   1.2 38.3   14.9 16 6.1 SSW | 194 14.2 - - 64.0   1.0 93.1   0.3
Mine Pit South 7/23/19 1730 92.9   0.5 31.5   15.2 11 0.0 N | 0 0.0 0.00 0.00 68.0   1.5 94.8   0.2
Max     95.2 54.7 31 6.9 - 15.1 0.00 0.00 68.0 98.9
Avg     92.1 45.5 21 4.5 - 9.8 0.00 - - -
Min     87.7 31.5 11 0.0 - 0.0 0.00 0.00 52.1 92.7